ROMMA est une association bénévole à but non lucratif. Votre soutien est indispensable : ADHERER à ROMMA ou FAIRE un DON

Granges-lès-Beaumont - (26, Drôme)

Drôme des Collines (155 m)   Longitude: 04°58'E   Latitude: 45°03'N Station partenaire n°123
 

Détail journalier du     <<     >>

Température Precipitation Humidité Pression Vent Dir Rafale Dir. rafale Ensol.
Heure (°C) (mm) (%) (hPa) (km/h) (km/h) (min)
01:00 12.506710159N23NNE0
02:00 12.3069101510N18NNO0
03:00 11.707210169N24NNE0
04:00 11.8075101611N26NNO0
05:00 10.9078101610N21NO0
06:00 11.0079101711N26NNE0
07:00 11.2078101715NNO26N0
08:00 11.7077101816NNO31NO0
09:00 13.1074101818N35N0
10:00 15.3065101923N44NNE20
11:00 16.8060101923N45NNO60
12:00 17.7057101922N45N30
13:00 18.3052101923N44NNO30
14:00 19.9047101924NNO47N30
15:00 20.4048101926NNO47N30
16:00 20.9045101925NNO48NNO50
17:00 20.3042101925NNO48N60
18:00 20.3045101923NNO45NNO60
19:00 19.1045102022NNO42NNE60
20:00 17.8050102020N40NO20
21:00 16.3052102117N35NNE0
22:00 15.1057102212N26NNO0
23:00 14.4060102210N23N0
minuit 13.506410238N19N0

Graphique du 29-05-2019

 

Serveur OMMA